Time;durP1;ratioP1;P1;durP2;ratioP2;P2;SDS_P1;SDS_P2;PMS_P1;PMS_P2;Temp;Humidity;BMP_temperature;BMP_pressure;BME280_temperature;BME280_humidity;BME280_pressure;Samples;Min_cycle;Max_cycle;Signal;HPM_P1;HPM_P2
2023/05/28 00:00:48;;;;;;;8.43;5.10;;;;;;;10.09;100.00;97212.19;5064024;27;20202;-64
2023/05/28 00:03:17;;;;;;;8.03;5.90;;;;;;;10.01;100.00;97199.03;5015847;27;20688;-62
2023/05/28 00:05:47;;;;;;;10.73;5.47;;;;;;;10.01;100.00;97198.22;5042746;27;20217;-64
2023/05/28 00:08:15;;;;;;;9.77;5.03;;;;;;;10.00;100.00;97197.38;5042637;27;20283;-65
2023/05/28 00:10:43;;;;;;;8.93;4.87;;;;;;;9.97;100.00;97200.38;5064315;28;20680;-64
2023/05/28 00:13:11;;;;;;;7.70;4.87;;;;;;;9.96;100.00;97209.31;5067118;27;20234;-64
2023/05/28 00:15:38;;;;;;;8.23;5.63;;;;;;;10.00;100.00;97197.38;5061004;28;20695;-63
2023/05/28 00:18:08;;;;;;;6.93;5.90;;;;;;;9.98;100.00;97197.56;5016404;28;20717;-64
2023/05/28 00:20:36;;;;;;;6.40;4.90;;;;;;;10.02;100.00;97198.00;5041470;28;20206;-64
2023/05/28 00:23:05;;;;;;;6.33;5.30;;;;;;;10.07;100.00;97200.13;5048086;27;20221;-63
2023/05/28 00:25:33;;;;;;;6.73;5.10;;;;;;;10.02;100.00;97195.38;5061738;28;20206;-62
2023/05/28 00:28:01;;;;;;;5.97;5.17;;;;;;;10.07;100.00;97194.84;5065622;27;20198;-62
2023/05/28 00:30:29;;;;;;;11.47;5.20;;;;;;;10.10;100.00;97190.03;5062672;27;20562;-62
2023/05/28 00:32:57;;;;;;;8.97;5.93;;;;;;;10.08;100.00;97199.13;5016962;27;21784;-61
2023/05/28 00:35:25;;;;;;;6.40;4.93;;;;;;;10.12;100.00;97182.72;5048151;28;20318;-63
2023/05/28 00:37:53;;;;;;;6.60;4.83;;;;;;;10.12;100.00;97193.31;5036032;28;20834;-62
2023/05/28 00:40:22;;;;;;;5.80;4.67;;;;;;;10.03;100.00;97185.63;5064016;27;20218;-62
2023/05/28 00:42:51;;;;;;;8.40;5.97;;;;;;;10.03;100.00;97193.56;5062625;28;20233;-62
2023/05/28 00:45:18;;;;;;;6.17;5.17;;;;;;;10.07;100.00;97190.38;5064693;28;20601;-63
2023/05/28 00:47:46;;;;;;;8.57;5.40;;;;;;;10.07;100.00;97186.91;5066812;27;20427;-62
2023/05/28 00:50:16;;;;;;;8.47;5.37;;;;;;;10.02;100.00;97179.47;4995451;28;20328;-63
2023/05/28 00:52:46;;;;;;;5.97;4.77;;;;;;;9.96;100.00;97191.63;5059466;27;20237;-64
2023/05/28 00:55:15;;;;;;;7.27;5.20;;;;;;;9.95;100.00;97191.81;5045564;28;20225;-64
2023/05/28 00:57:45;;;;;;;9.23;5.67;;;;;;;9.95;100.00;97191.81;5061718;27;20316;-62
2023/05/28 01:00:14;;;;;;;6.83;6.23;;;;;;;9.94;100.00;97192.81;5067876;27;20250;-59
2023/05/28 01:02:42;;;;;;;6.00;5.40;;;;;;;9.88;100.00;97191.72;5059007;27;21157;-63
2023/05/28 01:05:10;;;;;;;8.03;5.20;;;;;;;9.77;100.00;97198.25;5020255;28;20229;-60
2023/05/28 01:07:38;;;;;;;6.87;4.87;;;;;;;9.59;100.00;97171.28;5058850;28;20225;-62
2023/05/28 01:10:07;;;;;;;6.17;4.90;;;;;;;9.61;100.00;97185.97;5040113;27;20975;-64
2023/05/28 01:12:36;;;;;;;8.00;5.77;;;;;;;9.56;100.00;97181.22;5058147;28;20218;-62
2023/05/28 01:15:07;;;;;;;8.00;5.87;;;;;;;9.39;100.00;97161.19;5063770;28;20209;-63
2023/05/28 01:17:34;;;;;;;8.13;5.90;;;;;;;9.57;100.00;97184.69;5065255;27;20233;-62
2023/05/28 01:20:05;;;;;;;7.97;5.90;;;;;;;9.36;100.00;97166.84;5045063;28;20212;-63
2023/05/28 01:22:38;;;;;;;8.13;5.87;;;;;;;9.44;100.00;97185.28;5043574;27;21532;-62
2023/05/28 01:25:09;;;;;;;7.90;5.70;;;;;;;9.44;100.00;97182.63;5043475;28;20293;-64
2023/05/28 01:27:39;;;;;;;8.73;5.67;;;;;;;9.48;100.00;97185.75;5068232;28;20449;-62
2023/05/28 01:30:09;;;;;;;8.73;6.20;;;;;;;9.41;100.00;97185.63;5059282;28;20535;-64
2023/05/28 01:32:37;;;;;;;8.13;6.20;;;;;;;9.38;100.00;97186.00;5062944;27;20858;-65
2023/05/28 01:35:06;;;;;;;8.23;5.73;;;;;;;9.37;100.00;97184.34;5032838;27;20543;-63
2023/05/28 01:37:37;;;;;;;6.70;5.60;;;;;;;9.29;100.00;97174.66;5046598;28;20333;-62
2023/05/28 01:40:06;;;;;;;6.97;5.87;;;;;;;9.23;100.00;97181.44;5036931;28;20217;-64
2023/05/28 01:42:36;;;;;;;6.10;5.50;;;;;;;9.23;100.00;97172.72;5062649;27;20399;-64
2023/05/28 01:45:05;;;;;;;6.40;5.80;;;;;;;9.19;100.00;97180.16;5064572;27;20518;-64
2023/05/28 01:47:34;;;;;;;9.47;6.80;;;;;;;9.13;100.00;97172.94;5060902;28;21740;-63
2023/05/28 01:50:03;;;;;;;6.93;5.03;;;;;;;9.00;100.00;97154.19;5042049;28;20217;-64
2023/05/28 01:52:31;;;;;;;10.43;6.07;;;;;;;9.11;100.00;97169.63;5042508;28;20929;-64
2023/05/28 01:54:58;;;;;;;5.77;5.13;;;;;;;9.14;100.00;97177.22;5058416;28;20205;-64
2023/05/28 01:57:26;;;;;;;8.40;5.73;;;;;;;9.05;100.00;97178.28;5052878;27;20339;-64
2023/05/28 01:59:55;;;;;;;6.77;5.60;;;;;;;9.03;100.00;97173.16;5065281;28;20212;-63
2023/05/28 02:02:26;;;;;;;7.03;6.03;;;;;;;9.04;100.00;97173.97;5060602;28;20867;-61
2023/05/28 02:04:54;;;;;;;7.23;5.37;;;;;;;8.96;100.00;97170.41;5057860;28;20212;-64
2023/05/28 02:07:22;;;;;;;7.97;5.37;;;;;;;8.88;100.00;97165.13;5012365;28;20446;-63
2023/05/28 02:09:50;;;;;;;11.33;5.77;;;;;;;8.87;100.00;97167.97;5061332;28;20547;-59
2023/05/28 02:12:17;;;;;;;7.10;5.67;;;;;;;8.88;100.00;97173.06;5036959;28;20603;-61
2023/05/28 02:14:46;;;;;;;6.30;5.80;;;;;;;8.90;100.00;97165.81;5061210;28;20229;-59
2023/05/28 02:17:17;;;;;;;6.60;5.80;;;;;;;8.87;100.00;97154.75;5062695;28;20547;-63
2023/05/28 02:19:45;;;;;;;7.07;5.63;;;;;;;8.95;100.00;97163.47;5069397;28;20285;-60
2023/05/28 02:22:13;;;;;;;12.13;7.37;;;;;;;8.97;100.00;97165.91;5014724;28;21089;-63
2023/05/28 02:24:41;;;;;;;8.43;6.10;;;;;;;8.91;100.00;97159.53;5060419;28;20507;-62
2023/05/28 02:27:09;;;;;;;7.20;5.87;;;;;;;8.89;100.00;97160.69;5043968;28;20662;-60
2023/05/28 02:29:37;;;;;;;7.13;6.20;;;;;;;8.86;100.00;97159.19;5064934;28;20194;-64
2023/05/28 02:32:06;;;;;;;7.50;5.40;;;;;;;8.80;100.00;97163.38;5063725;28;20233;-63
2023/05/28 02:34:35;;;;;;;8.87;5.60;;;;;;;8.74;100.00;97165.88;5070242;28;20284;-63
2023/05/28 02:37:03;;;;;;;7.47;5.63;;;;;;;8.70;100.00;97160.09;5063724;28;20229;-62
2023/05/28 02:39:31;;;;;;;6.47;5.60;;;;;;;8.71;100.00;97160.94;5009998;28;21197;-62
2023/05/28 02:42:00;;;;;;;8.77;5.77;;;;;;;8.59;100.00;97163.13;5047329;28;20589;-60
2023/05/28 02:44:28;;;;;;;9.27;5.77;;;;;;;8.57;100.00;97160.69;5065895;28;20228;-62
2023/05/28 02:46:56;;;;;;;9.67;5.63;;;;;;;8.53;100.00;97154.91;5062753;28;23112;-62
2023/05/28 02:49:24;;;;;;;7.53;6.77;;;;;;;8.45;100.00;97156.72;5057774;28;20293;-60
2023/05/28 02:51:53;;;;;;;6.63;5.67;;;;;;;8.42;100.00;97149.97;5068021;28;20711;-63
2023/05/28 02:54:21;;;;;;;7.47;5.37;;;;;;;8.45;100.00;97156.72;5008376;28;20213;-63
2023/05/28 02:56:49;;;;;;;9.30;6.50;;;;;;;8.50;100.00;97149.97;5066201;28;20971;-62
2023/05/28 02:59:16;;;;;;;9.73;5.63;;;;;;;8.52;100.00;97147.16;5054094;28;20402;-63
2023/05/28 03:01:44;;;;;;;7.77;6.43;;;;;;;8.48;100.00;97146.66;5064388;28;20259;-65
2023/05/28 03:04:12;;;;;;;9.07;5.60;;;;;;;8.47;100.00;97154.72;5060446;28;20221;-62
2023/05/28 03:06:41;;;;;;;6.30;5.70;;;;;;;8.43;100.00;97153.44;5064080;28;20833;-63
2023/05/28 03:09:10;;;;;;;7.40;6.10;;;;;;;8.47;100.00;97157.38;5024821;28;20614;-64
2023/05/28 03:11:38;;;;;;;7.00;6.30;;;;;;;8.47;100.00;97154.72;5065917;27;20282;-63
2023/05/28 03:14:06;;;;;;;10.13;6.40;;;;;;;8.42;100.00;97154.44;5055150;27;20310;-61
2023/05/28 03:16:36;;;;;;;6.27;5.60;;;;;;;8.35;100.00;97165.66;5065750;28;20296;-63
2023/05/28 03:19:04;;;;;;;8.93;6.73;;;;;;;8.20;100.00;97133.88;5065251;27;20267;-62
2023/05/28 03:21:32;;;;;;;7.57;5.93;;;;;;;8.31;100.00;97160.88;5067044;27;20201;-63
2023/05/28 03:23:59;;;;;;;8.37;5.97;;;;;;;8.03;100.00;97130.47;5052456;27;20479;-63
2023/05/28 03:26:29;;;;;;;10.73;6.47;;;;;;;8.18;100.00;97156.16;5032549;27;20357;-63
2023/05/28 03:28:57;;;;;;;8.47;5.70;;;;;;;8.13;100.00;97161.09;5068434;27;20304;-62
2023/05/28 03:31:28;;;;;;;6.77;6.00;;;;;;;8.05;100.00;97156.69;5044756;27;20202;-62
2023/05/28 03:33:56;;;;;;;7.00;5.43;;;;;;;8.07;100.00;97160.78;5063783;28;20550;-62
2023/05/28 03:36:25;;;;;;;7.60;6.50;;;;;;;8.00;100.00;97159.00;5065440;27;20415;-62
2023/05/28 03:38:53;;;;;;;6.30;5.63;;;;;;;7.97;100.00;97165.44;5061222;28;20271;-62
2023/05/28 03:41:21;;;;;;;6.73;6.03;;;;;;;7.97;100.00;97160.16;5018432;27;20218;-62
2023/05/28 03:43:50;;;;;;;9.23;7.00;;;;;;;7.94;100.00;97163.13;5069182;27;20231;-61
2023/05/28 03:46:18;;;;;;;10.13;6.73;;;;;;;7.88;100.00;97171.72;5043920;27;20319;-62
2023/05/28 03:48:46;;;;;;;12.20;7.20;;;;;;;7.91;100.00;97172.19;5064446;27;20989;-64
2023/05/28 03:51:13;;;;;;;6.67;5.40;;;;;;;7.81;100.00;97158.38;5067025;27;20210;-61
2023/05/28 03:53:41;;;;;;;7.13;6.40;;;;;;;7.90;100.00;97170.56;5063830;27;20301;-62
2023/05/28 03:56:09;;;;;;;7.00;6.30;;;;;;;7.84;100.00;97173.06;5029944;27;20291;-62
2023/05/28 03:58:37;;;;;;;7.40;6.07;;;;;;;7.80;100.00;97160.19;5062760;27;20226;-60
2023/05/28 04:01:07;;;;;;;7.03;6.27;;;;;;;7.84;100.00;97162.50;5044300;27;20226;-62
2023/05/28 04:03:35;;;;;;;9.70;6.83;;;;;;;7.85;100.00;97164.16;5067052;27;20229;-63
2023/05/28 04:06:03;;;;;;;7.83;6.40;;;;;;;7.86;100.00;97163.97;5058641;27;20514;-62
2023/05/28 04:08:31;;;;;;;7.33;6.37;;;;;;;7.70;100.00;97146.34;5064363;28;20357;-63
2023/05/28 04:10:58;;;;;;;6.77;6.17;;;;;;;7.95;100.00;97156.88;5069260;27;20214;-63
2023/05/28 04:13:26;;;;;;;6.60;5.83;;;;;;;7.95;100.00;97156.88;5022063;27;20310;-63
2023/05/28 04:15:54;;;;;;;8.77;6.67;;;;;;;7.97;100.00;97161.00;5065451;28;20460;-63
2023/05/28 04:18:24;;;;;;;7.50;6.60;;;;;;;8.00;100.00;97156.38;5029425;27;20229;-62
2023/05/28 04:20:52;;;;;;;8.10;6.30;;;;;;;7.91;100.00;97139.72;5064233;28;20194;-63
2023/05/28 04:23:20;;;;;;;7.67;6.27;;;;;;;8.11;100.00;97162.09;5051994;27;20248;-65
2023/05/28 04:25:47;;;;;;;8.20;7.03;;;;;;;8.22;100.00;97157.47;5067313;27;20375;-65
2023/05/28 04:28:15;;;;;;;9.00;6.67;;;;;;;8.29;100.00;97155.78;5019674;27;20739;-61
2023/05/28 04:30:43;;;;;;;15.57;6.93;;;;;;;8.38;100.00;97160.06;5054309;27;20684;-63
2023/05/28 04:33:10;;;;;;;6.63;6.00;;;;;;;8.51;100.00;97161.34;5040005;27;20612;-64
2023/05/28 04:35:40;;;;;;;8.60;6.43;;;;;;;8.59;100.00;97158.69;5043701;27;20569;-62
2023/05/28 04:38:07;;;;;;;8.60;6.87;;;;;;;8.64;100.00;97158.16;5041395;28;20267;-63
2023/05/28 04:40:35;;;;;;;9.90;6.37;;;;;;;8.78;100.00;97156.59;5056453;27;20234;-61
2023/05/28 04:43:03;;;;;;;8.63;6.47;;;;;;;8.94;100.00;97156.53;5069511;27;20261;-64
2023/05/28 04:45:32;;;;;;;10.17;6.67;;;;;;;9.00;100.00;97157.63;4986845;28;20210;-61
2023/05/28 04:48:01;;;;;;;7.97;7.10;;;;;;;9.07;100.00;97160.41;5067899;28;20201;-63
2023/05/28 04:50:29;;;;;;;8.00;6.90;;;;;;;9.02;100.00;97123.94;5067935;27;20201;-61
2023/05/28 04:52:58;;;;;;;14.07;7.57;;;;;;;9.34;100.00;97159.06;5069194;27;20373;-63
2023/05/28 04:55:25;;;;;;;8.03;7.23;;;;;;;9.44;100.00;97161.47;5063762;27;20238;-63
2023/05/28 04:57:53;;;;;;;8.80;6.20;;;;;;;9.43;100.00;97159.00;5072229;27;20464;-66
2023/05/28 05:00:21;;;;;;;9.97;7.47;;;;;;;9.63;100.00;97170.75;5024300;27;20385;-63
2023/05/28 05:02:49;;;;;;;8.23;6.90;;;;;;;9.80;100.00;97165.31;5050153;28;21128;-62
2023/05/28 05:05:17;;;;;;;12.93;7.30;;;;;;;9.96;100.00;97162.53;5044619;27;20218;-63
2023/05/28 05:07:46;;;;;;;8.03;6.60;;;;;;;10.11;100.00;97170.47;5067632;27;20212;-67
2023/05/28 05:10:15;;;;;;;10.83;6.40;;;;;;;10.15;100.00;97165.63;5065652;27;20197;-63
2023/05/28 05:12:43;;;;;;;7.20;6.50;;;;;;;10.39;100.00;97174.31;5062518;28;20356;-63
2023/05/28 05:15:11;;;;;;;7.63;6.20;;;;;;;10.39;100.00;97161.88;5074008;27;20751;-66
2023/05/28 05:17:39;;;;;;;9.53;6.63;;;;;;;10.40;100.00;97168.06;5012900;27;20518;-64
2023/05/28 05:20:08;;;;;;;9.57;6.30;;;;;;;10.55;100.00;97163.56;5066238;28;20217;-64
2023/05/28 05:22:36;;;;;;;8.83;6.37;;;;;;;10.67;100.00;97165.75;5041956;27;20597;-57
2023/05/28 05:25:04;;;;;;;10.20;6.40;;;;;;;10.83;100.00;97167.38;5068148;27;20396;-63
2023/05/28 05:27:35;;;;;;;6.67;6.10;;;;;;;10.86;100.00;97159.84;5064172;27;20354;-60
2023/05/28 05:30:04;;;;;;;8.63;6.60;;;;;;;11.02;100.00;97159.81;5069980;27;20206;-64
2023/05/28 05:32:31;;;;;;;8.13;6.50;;;;;;;11.12;100.00;97165.63;5020757;27;20968;-62
2023/05/28 05:34:59;;;;;;;9.60;6.20;;;;;;;11.16;100.00;97161.59;5064997;27;20290;-64
2023/05/28 05:37:27;;;;;;;6.73;6.00;;;;;;;11.23;100.00;97159.84;5045888;28;20218;-62
2023/05/28 05:39:55;;;;;;;7.30;6.20;;;;;;;11.37;100.00;97160.81;5072485;27;20240;-63
2023/05/28 05:42:22;;;;;;;9.37;6.87;;;;;;;11.47;100.00;97159.66;5071811;28;20227;-62
2023/05/28 05:44:53;;;;;;;9.50;5.97;;;;;;;11.66;100.00;97164.31;5071167;27;20494;-62
2023/05/28 05:47:21;;;;;;;9.30;6.50;;;;;;;11.78;100.00;97159.31;5018474;28;20218;-62
2023/05/28 05:49:48;;;;;;;8.30;5.83;;;;;;;11.86;100.00;97153.84;5068975;28;21004;-61
2023/05/28 05:52:16;;;;;;;7.10;6.00;;;;;;;11.88;100.00;97167.75;5045423;28;20637;-62
2023/05/28 05:54:44;;;;;;;12.17;6.47;;;;;;;11.92;100.00;97162.06;5062887;27;20724;-63
2023/05/28 05:57:11;;;;;;;7.33;6.17;;;;;;;12.18;100.00;97157.97;5070270;27;20221;-62
2023/05/28 05:59:39;;;;;;;6.87;5.47;;;;;;;12.31;100.00;97158.03;5067123;28;20422;-61
2023/05/28 06:02:08;;;;;;;7.30;6.13;;;;;;;12.52;100.00;97162.47;5066956;28;20229;-62
2023/05/28 06:04:36;;;;;;;6.73;5.70;;;;;;;12.70;100.00;97156.63;5010071;28;20241;-62
2023/05/28 06:07:06;;;;;;;7.23;6.27;;;;;;;12.81;100.00;97154.41;5076869;28;20664;-65
2023/05/28 06:09:34;;;;;;;8.57;6.10;;;;;;;12.77;100.00;97137.22;5041229;28;20290;-63
2023/05/28 06:12:02;;;;;;;8.30;5.93;;;;;;;13.19;100.00;97151.25;5063732;28;20237;-62
2023/05/28 06:14:30;;;;;;;6.97;5.47;;;;;;;13.17;100.00;97132.00;5073387;28;20225;-64
2023/05/28 06:16:58;;;;;;;7.07;5.97;;;;;;;13.41;100.00;97153.72;5072594;28;20226;-63
2023/05/28 06:19:27;;;;;;;7.03;5.83;;;;;;;13.51;100.00;97153.38;5014438;28;20344;-62
2023/05/28 06:21:54;;;;;;;10.20;5.77;;;;;;;13.54;100.00;97153.78;5008370;28;20359;-62
2023/05/28 06:24:22;;;;;;;9.43;5.90;;;;;;;13.56;100.00;97158.91;5036937;28;20301;-62
2023/05/28 06:26:50;;;;;;;6.07;5.03;;;;;;;13.69;100.00;97158.94;5064887;28;20270;-62
2023/05/28 06:29:18;;;;;;;8.70;5.47;;;;;;;13.81;100.00;97151.13;5061225;28;20213;-62
2023/05/28 06:31:46;;;;;;;7.23;5.97;;;;;;;13.90;100.00;97149.06;5069677;28;20667;-62
2023/05/28 06:34:14;;;;;;;8.60;5.87;;;;;;;13.91;100.00;97157.91;5016745;28;20752;-61
2023/05/28 06:36:43;;;;;;;6.70;5.97;;;;;;;14.08;100.00;97159.09;5065937;28;20693;-63
2023/05/28 06:39:11;;;;;;;5.93;5.33;;;;;;;14.13;100.00;97161.16;5060811;28;20735;-62
2023/05/28 06:41:39;;;;;;;7.90;5.47;;;;;;;14.13;100.00;97153.16;5052803;28;20802;-63
2023/05/28 06:44:06;;;;;;;6.17;5.57;;;;;;;14.43;100.00;97150.03;5073254;28;20234;-61
2023/05/28 06:46:34;;;;;;;7.83;5.83;;;;;;;14.48;100.00;97142.22;5061376;28;20430;-61
2023/05/28 06:49:02;;;;;;;8.00;5.40;;;;;;;14.72;100.00;97147.88;5019212;27;20206;-63
2023/05/28 06:51:29;;;;;;;6.13;5.53;;;;;;;14.87;100.00;97148.44;5041993;27;20720;-64
2023/05/28 06:53:58;;;;;;;8.00;5.70;;;;;;;14.99;100.00;97150.44;5064801;27;20668;-64
2023/05/28 06:56:26;;;;;;;7.83;5.37;;;;;;;15.10;100.00;97143.63;5051134;28;20202;-63
2023/05/28 06:58:54;;;;;;;7.53;4.77;;;;;;;15.11;100.00;97147.91;5076010;27;20643;-64
2023/05/28 07:01:22;;;;;;;6.23;5.63;;;;;;;15.10;100.00;97147.09;5068543;27;20367;-62
2023/05/28 07:03:50;;;;;;;6.43;5.17;;;;;;;15.25;100.00;97140.66;5058251;27;20814;-64
2023/05/28 07:06:18;;;;;;;6.63;4.83;;;;;;;15.43;100.00;97140.72;5022927;27;20859;-62
2023/05/28 07:08:46;;;;;;;6.83;5.33;;;;;;;15.33;100.00;97141.19;5066673;27;20201;-61
2023/05/28 07:11:15;;;;;;;9.63;5.70;;;;;;;15.65;99.65;97142.22;5046980;27;21600;-62
2023/05/28 07:13:43;;;;;;;6.63;5.13;;;;;;;15.90;100.00;97145.75;5072657;27;20231;-64
2023/05/28 07:16:11;;;;;;;7.10;5.30;;;;;;;15.98;93.35;97150.00;5065543;27;20541;-62
2023/05/28 07:18:38;;;;;;;7.73;5.63;;;;;;;16.26;91.65;97145.19;5061502;27;20344;-65
2023/05/28 07:21:06;;;;;;;7.23;5.80;;;;;;;16.13;89.80;97149.66;5015572;27;20281;-61
2023/05/28 07:23:34;;;;;;;6.70;5.17;;;;;;;16.01;87.22;97146.03;5066217;27;20562;-61
2023/05/28 07:26:02;;;;;;;10.60;7.60;;;;;;;16.06;92.34;97148.88;5046950;27;20304;-64
2023/05/28 07:28:31;;;;;;;7.63;5.47;;;;;;;16.15;91.10;97154.75;5062978;27;20883;-64
2023/05/28 07:30:59;;;;;;;6.80;5.40;;;;;;;16.33;89.87;97156.63;5066964;28;20206;-63
2023/05/28 07:33:27;;;;;;;6.90;5.23;;;;;;;16.20;91.49;97158.41;5057577;27;20261;-63
2023/05/28 07:35:54;;;;;;;11.10;5.20;;;;;;;16.37;88.99;97159.69;5070467;27;20255;-60
2023/05/28 07:38:22;;;;;;;9.87;5.43;;;;;;;16.41;89.06;97156.34;5015208;28;20650;-62
2023/05/28 07:40:50;;;;;;;5.57;4.87;;;;;;;16.61;91.96;97155.31;5055394;28;20291;-62
2023/05/28 07:43:18;;;;;;;6.97;5.13;;;;;;;16.70;91.46;97151.28;5066586;27;20380;-63
2023/05/28 07:45:47;;;;;;;9.40;5.67;;;;;;;16.66;89.73;97150.09;5070723;27;20914;-63
2023/05/28 07:48:15;;;;;;;8.50;5.70;;;;;;;16.78;86.34;97152.84;5068331;27;20206;-62
2023/05/28 07:50:43;;;;;;;7.07;5.00;;;;;;;16.84;91.06;97151.13;5064536;27;20331;-62
2023/05/28 07:53:10;;;;;;;9.83;6.33;;;;;;;16.97;85.96;97153.66;5017045;27;20234;-62
2023/05/28 07:55:38;;;;;;;6.27;4.97;;;;;;;16.97;83.38;97153.66;5060819;27;20847;-63
2023/05/28 07:58:06;;;;;;;7.40;5.37;;;;;;;17.00;83.83;97155.06;5051534;27;20289;-63
2023/05/28 08:00:35;;;;;;;8.13;5.30;;;;;;;17.09;79.38;97147.53;5071411;27;20217;-63
2023/05/28 08:03:04;;;;;;;7.93;5.00;;;;;;;17.23;82.01;97148.97;5064101;27;20339;-65
2023/05/28 08:05:31;;;;;;;6.43;5.43;;;;;;;17.46;79.95;97150.13;5068873;27;20205;-63
2023/05/28 08:08:00;;;;;;;8.53;5.73;;;;;;;17.39;83.63;97144.03;5071874;27;21028;-63
2023/05/28 08:10:27;;;;;;;6.77;5.07;;;;;;;17.35;84.65;97157.06;5011322;27;20233;-64
2023/05/28 08:12:55;;;;;;;9.13;5.27;;;;;;;17.52;79.97;97151.88;5052883;27;20726;-63
2023/05/28 08:15:23;;;;;;;5.53;5.00;;;;;;;17.55;83.59;97147.94;5045610;27;20389;-62
2023/05/28 08:17:51;;;;;;;7.40;5.40;;;;;;;17.69;84.99;97151.22;5069893;27;20266;-63
2023/05/28 08:20:22;;;;;;;7.57;5.80;;;;;;;17.61;84.66;97147.00;5043638;27;20295;-63
2023/05/28 08:22:50;;;;;;;6.57;5.23;;;;;;;17.64;83.02;97146.53;5045767;27;20906;-61
2023/05/28 08:25:17;;;;;;;7.03;5.10;;;;;;;17.86;82.20;97143.31;5032829;27;20210;-64
2023/05/28 08:27:45;;;;;;;7.20;4.87;;;;;;;17.86;65.59;97140.63;5058222;28;20881;-66
2023/05/28 08:30:13;;;;;;;7.07;4.50;;;;;;;17.99;63.64;97140.41;5057472;27;20214;-64
2023/05/28 08:32:41;;;;;;;6.97;4.70;;;;;;;18.24;63.55;97139.38;5065780;28;20759;-63
2023/05/28 08:35:09;;;;;;;9.00;5.43;;;;;;;18.31;61.91;97140.06;5081725;28;20198;-62
2023/05/28 08:37:38;;;;;;;5.20;4.47;;;;;;;18.48;65.27;97142.84;5060996;27;20206;-62
2023/05/28 08:40:08;;;;;;;8.50;6.00;;;;;;;18.31;67.20;97134.72;5049405;27;20917;-63
2023/05/28 08:42:36;;;;;;;6.67;5.13;;;;;;;18.37;68.77;97111.47;5068411;28;20321;-62
2023/05/28 08:45:05;;;;;;;6.07;5.50;;;;;;;18.48;65.52;97124.06;5052657;27;20410;-64
2023/05/28 08:47:33;;;;;;;10.10;5.57;;;;;;;17.94;67.06;97132.25;5073054;27;20205;-63
2023/05/28 08:50:04;;;;;;;7.77;6.27;;;;;;;17.98;69.56;97132.59;5058747;27;20929;-63
2023/05/28 08:52:32;;;;;;;6.33;5.07;;;;;;;18.26;66.28;97126.56;5067544;27;20249;-62
2023/05/28 08:55:03;;;;;;;6.17;5.40;;;;;;;18.40;65.12;97113.72;5010702;27;20316;-63
2023/05/28 08:57:31;;;;;;;6.70;4.73;;;;;;;18.68;65.15;97117.47;5069491;28;20194;-63
2023/05/28 08:59:59;;;;;;;6.30;5.03;;;;;;;18.64;64.71;97111.78;5044078;28;20222;-64
2023/05/28 09:02:27;;;;;;;7.37;5.50;;;;;;;18.77;59.19;97113.38;5065344;27;20240;-64
2023/05/28 09:04:57;;;;;;;7.03;4.20;;;;;;;18.60;58.71;97109.81;5033503;28;20220;-64
2023/05/28 09:07:25;;;;;;;6.20;4.80;;;;;;;18.74;63.18;97119.19;5061984;28;20222;-63
2023/05/28 09:09:53;;;;;;;7.63;4.63;;;;;;;18.80;60.80;97122.81;5044073;27;21436;-61
2023/05/28 09:12:23;;;;;;;9.07;4.90;;;;;;;18.83;61.86;97102.75;5017785;27;20365;-62
2023/05/28 09:14:52;;;;;;;6.63;4.97;;;;;;;18.89;61.29;97083.00;5045306;27;20222;-61
2023/05/28 09:17:33;;;;;;;5.43;4.73;;;;;;;19.28;58.44;97107.34;5073083;27;20855;-63
2023/05/28 09:20:00;;;;;;;5.90;4.93;;;;;;;19.30;57.61;97107.09;5063784;27;20206;-63
2023/05/28 09:22:28;;;;;;;6.57;4.97;;;;;;;19.47;56.14;97091.81;5073751;28;21456;-63
2023/05/28 09:24:56;;;;;;;6.67;5.63;;;;;;;19.53;56.26;97092.72;5021079;27;20941;-63
2023/05/28 09:27:25;;;;;;;6.17;4.80;;;;;;;19.42;55.77;97085.53;5043399;27;20217;-63
2023/05/28 09:29:53;;;;;;;5.93;4.93;;;;;;;19.32;59.75;97094.22;5041598;28;20229;-63
2023/05/28 09:32:21;;;;;;;6.83;5.00;;;;;;;19.15;58.95;97067.38;5043410;27;20226;-61
2023/05/28 09:34:50;;;;;;;7.47;5.87;;;;;;;19.21;56.39;97086.00;5064454;27;20202;-61
2023/05/28 09:37:18;;;;;;;5.83;5.33;;;;;;;19.27;56.82;97084.25;5058447;28;20676;-63
2023/05/28 09:39:46;;;;;;;6.03;5.13;;;;;;;19.14;55.15;97087.25;5043585;27;20273;-61
2023/05/28 09:42:14;;;;;;;6.67;5.33;;;;;;;19.19;55.68;97093.50;5037569;27;20925;-63
2023/05/28 09:44:43;;;;;;;7.83;5.63;;;;;;;19.34;52.78;97092.94;5047345;27;20323;-63
2023/05/28 09:47:15;;;;;;;7.77;5.70;;;;;;;19.42;53.20;97086.38;5042153;27;20206;-63
2023/05/28 09:49:44;;;;;;;6.57;4.77;;;;;;;19.63;50.93;97082.13;5064016;27;20232;-62
2023/05/28 09:52:17;;;;;;;6.87;4.60;;;;;;;19.47;50.77;97088.31;5064745;27;20731;-62
2023/05/28 09:54:46;;;;;;;7.80;5.30;;;;;;;19.38;51.91;97077.97;5046661;27;20209;-65
2023/05/28 09:57:15;;;;;;;7.37;5.00;;;;;;;19.49;51.86;97070.06;5068657;28;20209;-62
2023/05/28 09:59:45;;;;;;;6.83;5.63;;;;;;;19.54;53.77;97072.84;5018420;28;21623;-64
2023/05/28 10:02:23;;;;;;;5.50;5.07;;;;;;;19.63;52.88;97071.38;5041769;28;20226;-66
2023/05/28 10:04:53;;;;;;;6.63;5.33;;;;;;;19.92;52.85;97067.78;5066174;28;20202;-65
2023/05/28 10:07:22;;;;;;;6.43;5.27;;;;;;;19.90;53.28;97061.81;5072737;28;20683;-65
2023/05/28 10:09:51;;;;;;;7.30;5.27;;;;;;;19.96;51.49;97066.22;5048986;28;20209;-64
2023/05/28 10:12:21;;;;;;;5.73;4.80;;;;;;;19.93;50.57;97061.34;5067037;28;20715;-61
2023/05/28 10:14:51;;;;;;;7.37;5.00;;;;;;;19.90;49.22;97060.00;5017295;28;20226;-63
2023/05/28 10:17:19;;;;;;;6.27;4.97;;;;;;;19.99;49.16;97046.13;5043171;28;20751;-64
2023/05/28 10:19:47;;;;;;;7.77;4.70;;;;;;;19.94;49.57;97045.00;5057357;27;20281;-62
2023/05/28 10:22:15;;;;;;;4.70;4.40;;;;;;;20.04;49.14;97046.19;5075738;27;20245;-65
2023/05/28 10:24:44;;;;;;;8.33;4.73;;;;;;;20.16;50.05;97044.19;5070839;27;20203;-63
2023/05/28 10:27:13;;;;;;;8.50;5.70;;;;;;;20.29;51.93;97043.00;5051273;28;20201;-65
2023/05/28 10:29:42;;;;;;;5.47;4.97;;;;;;;20.24;48.28;97038.34;5026559;27;20704;-64
2023/05/28 10:32:14;;;;;;;5.47;4.87;;;;;;;20.49;50.42;97041.63;5074117;27;20225;-65
2023/05/28 10:34:42;;;;;;;5.00;4.60;;;;;;;20.83;49.42;97046.84;5067849;27;20305;-63
2023/05/28 10:37:12;;;;;;;6.43;4.33;;;;;;;20.63;47.36;97052.78;5068952;28;20304;-63
2023/05/28 10:39:41;;;;;;;5.70;5.00;;;;;;;20.46;48.00;97047.53;5073115;27;20396;-64
2023/05/28 10:42:10;;;;;;;7.03;5.00;;;;;;;20.81;48.22;97041.72;5042440;28;20233;-64
2023/05/28 10:44:52;;;;;;;4.47;3.97;;;;;;;20.92;43.78;97042.66;5059773;27;20214;-64
2023/05/28 10:47:31;;;;;;;5.30;4.80;;;;;;;21.06;43.10;97043.06;5078045;27;20301;-63
2023/05/28 10:50:01;;;;;;;7.07;4.83;;;;;;;21.19;43.12;97035.63;5042344;28;20612;-65
2023/05/28 10:52:31;;;;;;;5.47;4.57;;;;;;;21.42;41.75;97036.34;5066976;27;20249;-65
2023/05/28 10:55:03;;;;;;;5.33;4.83;;;;;;;21.62;42.73;97031.09;5060304;27;20231;-63
2023/05/28 10:57:40;;;;;;;7.40;4.87;;;;;;;21.63;44.53;97016.53;5071640;28;20197;-62
2023/05/28 11:00:12;;;;;;;5.20;4.67;;;;;;;21.87;46.01;97026.13;5018726;28;21123;-63
2023/05/28 11:02:43;;;;;;;5.73;4.93;;;;;;;21.93;44.41;97023.22;5078550;27;20228;-64
2023/05/28 11:05:12;;;;;;;5.10;4.23;;;;;;;21.68;42.19;97022.00;5052284;28;20742;-63
2023/05/28 11:07:40;;;;;;;5.87;5.20;;;;;;;21.62;42.54;97019.50;5072303;27;20228;-63
2023/05/28 11:10:09;;;;;;;7.40;5.23;;;;;;;21.42;43.52;97012.09;5070133;27;20414;-63
2023/05/28 11:12:38;;;;;;;6.33;4.77;;;;;;;21.35;43.54;97023.88;5075724;28;20221;-64
2023/05/28 11:15:08;;;;;;;5.17;4.60;;;;;;;21.80;44.34;97026.38;5019700;28;21778;-62
2023/05/28 11:17:38;;;;;;;5.30;4.67;;;;;;;21.91;43.07;97019.97;5073438;27;20218;-63
2023/05/28 11:20:17;;;;;;;9.33;5.00;;;;;;;22.14;42.68;97006.31;5068071;27;20657;-62
2023/05/28 11:22:45;;;;;;;5.00;4.50;;;;;;;22.37;43.66;97010.44;5052634;27;20263;-64
2023/05/28 11:25:13;;;;;;;4.83;4.50;;;;;;;22.54;40.72;97012.97;5067548;27;20643;-61
2023/05/28 11:27:41;;;;;;;5.40;4.90;;;;;;;22.34;39.46;96992.91;5077274;27;20206;-63
2023/05/28 11:30:12;;;;;;;5.40;4.77;;;;;;;22.46;40.33;97002.69;5062273;27;20720;-63
2023/05/28 11:32:40;;;;;;;10.27;4.83;;;;;;;22.07;40.33;96995.75;5026102;27;20256;-62
2023/05/28 11:35:12;;;;;;;6.10;4.77;;;;;;;22.07;39.28;96996.59;5076828;27;20721;-61
2023/05/28 11:37:41;;;;;;;5.23;4.67;;;;;;;21.69;39.67;96999.34;5049312;27;20217;-64